• Join FlightAware (Why Join?)
  • Login
  • US Flag 
04:15AM EDT


 

Airport Tracker/Info


-or-


 

Live Flight TrackerFlight Track Log ✈ N302WC ✈ 06-Jul-2013 ✈ KASE - KAUS

Flight Track Log - Related Links

Times and Time Zones

All times are in EDT time to prevent confusion due to time zone crossing. See the N302WC flight status page for this flight to view local times or setup timezone preferences in your user account.

Time Position Orientation Groundspeed Altitude Reporting Facility
EDT Latitude Longitude Course Direction KTS MPH feet Rate Location/Type
10:24AM 39.2756 -106.9058 173° South 202 232 10,900  Level Denver Center
10:24AM 39.2756 -106.9058 173° South 202 232 10,900 2,580 Level Denver Center
10:25AM 39.2894 -106.9747 285° West 197 227 13,600 2,580 Climbing Denver Center
10:25AM 39.2894 -106.9747 285° West 197 227 13,600 1,980 Level Denver Center
10:26AM 39.2708 -107.0397 250° West 219 252 15,700 1,980 Climbing Denver Center
10:26AM 39.2708 -107.0397 250° West 219 252 15,700 1,920 Level Denver Center
10:27AM 39.1833 -107.0608 191° South 267 307 17,700 1,920 Climbing Denver Center
10:27AM 39.1833 -107.0608 191° South 267 307 17,700 1,500 Level Denver Center
10:28AM 39.0989 -107.0556 177° South 301 346 19,300 1,500 Climbing Denver Center
10:28AM 39.0989 -107.0556 177° South 301 346 19,300 1,980 Level Denver Center
10:29AM 39.0028 -107.0519 178° South 316 364 21,400 1,980 Climbing Denver Center
10:29AM 39.0028 -107.0519 178° South 316 364 21,400 1,320 Level Denver Center
10:30AM 39.0417 -107.1125 173° South  Level FlightAware Approximate
10:30AM 39.0417 -107.1125 173° South  Level FlightAware Approximate
10:30AM 38.9172 -107.0506 179° South 319 367 22,800  Level Denver Center
10:30AM 38.9172 -107.0506 179° South 319 367 22,800 1,320 Level Denver Center
10:31AM 38.8292 -107.0475 178° South 329 379 24,200 1,320 Climbing Denver Center
10:31AM 38.8292 -107.0475 178° South 329 379 24,200 1,440 Level Denver Center
10:33AM 38.7358 -107.0464 179° South 334 384 25,700 1,440 Climbing Denver Center
10:33AM 38.7358 -107.0464 179° South 334 384 25,700 1,620 Level Denver Center
10:34AM 38.6200 -107.0433 179° South 344 396 27,400 1,620 Climbing Denver Center
10:34AM 38.6200 -107.0433 179° South 344 396 27,400 1,140 Level Denver Center
10:35AM 38.5231 -107.0406 179° South 348 400 28,600 1,140 Climbing Denver Center
10:35AM 38.5231 -107.0406 179° South 348 400 28,600 1,320 Level Denver Center
10:36AM 38.4286 -107.0106 166° South 367 422 30,000 1,320 Climbing Denver Center
10:36AM 38.4286 -107.0106 166° South 367 422 30,000 1,620 Level Denver Center
10:37AM 38.3517 -106.9286 140° Southeast 361 415 31,700 1,620 Climbing Denver Center
10:37AM 38.3517 -106.9286 140° Southeast 361 415 31,700 1,200 Level Denver Center
10:38AM 38.2744 -106.8411 138° Southeast 360 414 33,000 1,200 Climbing Denver Center
10:38AM 38.2744 -106.8411 138° Southeast 360 414 33,000 1,320 Level Denver Center
10:39AM 38.1911 -106.7467 138° Southeast 360 414 34,400 1,320 Climbing Denver Center
10:39AM 38.1911 -106.7467 138° Southeast 360 414 34,400 1,200 Level Denver Center
10:40AM 38.1183 -106.6650 139° Southeast 362 417 35,700 1,200 Climbing Denver Center
10:40AM 38.1183 -106.6650 139° Southeast 362 417 35,700 1,320 Level Denver Center
10:41AM 38.0358 -106.5717 138° Southeast 354 407 37,100 1,320 Climbing Denver Center
10:41AM 38.0358 -106.5717 138° Southeast 354 407 37,100 720 Level Denver Center
10:42AM 37.9592 -106.4886 139° Southeast 353 406 37,900 720 Climbing Denver Center
10:42AM 37.9592 -106.4886 139° Southeast 353 406 37,900 840 Level Denver Center
10:43AM 37.8886 -106.4083 138° Southeast 355 409 38,800 840 Climbing Denver Center
10:43AM 37.8886 -106.4083 138° Southeast 355 409 38,800 900 Level Denver Center
10:44AM 37.8097 -106.3225 139° Southeast 351 404 39,800 900 Climbing Denver Center
10:44AM 37.8097 -106.3225 139° Southeast 351 404 39,800 480 Level Denver Center
10:45AM 37.7392 -106.2425 138° Southeast 353 406 40,300 480 Climbing Denver Center
10:45AM 37.7392 -106.2425 138° Southeast 353 406 40,300 540 Level Denver Center
10:46AM 37.6489 -106.1439 139° Southeast 367 422 40,900 540 Climbing Denver Center
10:46AM 37.6489 -106.1439 139° Southeast 367 422 40,900 540 Level Denver Center
10:47AM 37.5744 -106.0628 139° Southeast 370 426 41,500 540 Climbing Denver Center
10:47AM 37.5744 -106.0628 139° Southeast 370 426 41,500 720 Level Denver Center
10:48AM 37.4900 -105.9689 139° Southeast 375 432 42,300 720 Climbing Denver Center
10:48AM 37.4900 -105.9689 139° Southeast 375 432 42,300 540 Level Denver Center
10:49AM 37.4139 -105.8883 140° Southeast 374 430 42,900 540 Climbing Denver Center
10:49AM 37.4139 -105.8883 140° Southeast 374 430 42,900 60 Level Denver Center
10:50AM 37.3250 -105.7917 139° Southeast 376 433 43,000 60 Climbing Denver Center
10:50AM 37.3250 -105.7917 139° Southeast 376 433 43,000  Level Denver Center
10:51AM 37.2461 -105.7056 139° Southeast 379 436 43,000  Level Denver Center
10:51AM 37.2461 -105.7056 139° Southeast 379 436 43,000  Level Denver Center
10:52AM 37.1639 -105.6192 140° Southeast 394 453 43,000  Level Denver Center
10:52AM 37.1639 -105.6192 140° Southeast 394 453 43,000  Level Denver Center
10:53AM 37.0661 -105.5158 140° Southeast 408 470 43,000  Level Denver Center
10:53AM 37.0661 -105.5158 140° Southeast 408 470 43,000  Level Denver Center
10:54AM 36.9792 -105.4261 140° Southeast 419 482 43,000  Level Denver Center
10:54AM 36.9792 -105.4261 140° Southeast 419 482 43,000  Level Denver Center
10:55AM 36.8806 -105.3211 140° Southeast 418 481 43,000  Level Denver Center
10:55AM 36.8806 -105.3211 140° Southeast 418 481 43,000  Level Denver Center
10:56AM 36.7914 -105.2300 141° Southeast 428 493 43,000  Level Denver Center
10:56AM 36.7914 -105.2300 141° Southeast 428 493 43,000  Level Denver Center
10:57AM 36.7047 -105.1386 140° Southeast 428 493 43,000  Level Denver Center
10:57AM 36.7047 -105.1386 140° Southeast 428 493 43,000  Level Denver Center
10:58AM 36.5925 -105.0219 140° Southeast 434 499 43,000  Level Denver Center
10:58AM 36.5925 -105.0219 140° Southeast 434 499 43,000  Level Denver Center
10:59AM 36.4972 -104.9247 141° Southeast 441 507 43,000  Level Denver Center
10:59AM 36.4972 -104.9247 141° Southeast 441 507 43,000  Level Denver Center
11:00AM 36.4064 -104.8311 140° Southeast 436 502 43,000  Level Denver Center
11:00AM 36.4064 -104.8311 140° Southeast 436 502 43,000  Level Denver Center
11:01AM 36.3017 -104.7253 141° Southeast 435 501 43,000  Level Denver Center
11:01AM 36.3017 -104.7253 141° Southeast 435 501 43,000  Level Denver Center
11:03AM 36.1856 -104.6042 140° Southeast 433 498 43,000  Level Albuquerque Center
11:03AM 36.1856 -104.6042 140° Southeast 433 498 43,000  Level Albuquerque Center
11:04AM 36.0919 -104.5086 140° Southeast 433 498 43,000  Level Albuquerque Center
11:04AM 36.0919 -104.5086 140° Southeast 433 498 43,000  Level Albuquerque Center
11:05AM 35.9972 -104.4153 141° Southeast 430 495 43,000  Level Albuquerque Center
11:05AM 35.9972 -104.4153 141° Southeast 430 495 43,000  Level Albuquerque Center
11:06AM 35.9042 -104.3183 140° Southeast 432 497 43,000  Level Albuquerque Center
11:06AM 35.9042 -104.3183 140° Southeast 432 497 43,000  Level Albuquerque Center
11:07AM 35.8100 -104.2247 141° Southeast 431 496 43,000  Level Albuquerque Center
11:07AM 35.8100 -104.2247 141° Southeast 431 496 43,000  Level Albuquerque Center
11:08AM 35.7164 -104.1286 140° Southeast 432 497 43,000  Level Albuquerque Center
11:08AM 35.7164 -104.1286 140° Southeast 432 497 43,000  Level Albuquerque Center
11:09AM 35.6211 -104.0353 141° Southeast 432 497 43,000  Level Albuquerque Center
11:09AM 35.6211 -104.0353 141° Southeast 432 497 43,000  Level Albuquerque Center
11:10AM 35.5289 -103.9392 140° Southeast 428 493 43,000  Level Albuquerque Center
11:10AM 35.5289 -103.9392 140° Southeast 428 493 43,000  Level Albuquerque Center
11:11AM 35.4175 -103.8294 141° Southeast 432 497 43,000  Level Albuquerque Center
11:11AM 35.4175 -103.8294 141° Southeast 432 497 43,000  Level Albuquerque Center
11:12AM 35.3228 -103.7367 141° Southeast 429 494 43,000  Level Albuquerque Center
11:12AM 35.3228 -103.7367 141° Southeast 429 494 43,000  Level Albuquerque Center
11:13AM 35.2283 -103.6425 141° Southeast 430 495 43,000  Level Albuquerque Center
11:13AM 35.2283 -103.6425 141° Southeast 430 495 43,000  Level Albuquerque Center
11:14AM 35.1358 -103.5492 140° Southeast 428 493 43,000  Level Albuquerque Center
11:14AM 35.1358 -103.5492 140° Southeast 428 493 43,000  Level Albuquerque Center
11:15AM 35.0525 -103.4456 134° Southeast 426 490 43,000  Level Albuquerque Center
11:15AM 35.0525 -103.4456 134° Southeast 426 490 43,000  Level Albuquerque Center
11:16AM 34.9667 -103.3497 138° Southeast 417 480 43,000  Level Albuquerque Center
11:16AM 34.9667 -103.3497 138° Southeast 417 480 43,000  Level Albuquerque Center
11:17AM 34.8833 -103.2492 135° Southeast 417 480 43,000  Level Albuquerque Center
11:17AM 34.8833 -103.2492 135° Southeast 417 480 43,000  Level Albuquerque Center
11:18AM 34.7978 -103.1525 137° Southeast 416 479 43,000  Level Albuquerque Center
11:18AM 34.7978 -103.1525 137° Southeast 416 479 43,000  Level Albuquerque Center
11:19AM 34.7156 -103.0539 135° Southeast 413 475 43,000  Level Albuquerque Center
11:19AM 34.7156 -103.0539 135° Southeast 413 475 43,000  Level Albuquerque Center
11:25AM 34.2108 -102.4736 136° Southeast 408 470 43,000  Level Fort Worth Center
11:26AM 34.1189 -102.3681 136° Southeast 415 478 43,000  Level Fort Worth Center
11:27AM 34.0431 -102.2858 138° Southeast 415 478 43,000  Level Fort Worth Center
11:28AM 33.9531 -102.1833 137° Southeast 410 472 43,000  Level Fort Worth Center
11:29AM 33.8789 -102.1017 138° Southeast 405 466 43,000  Level Fort Worth Center
11:30AM 33.7986 -102.0125 137° Southeast 399 459 43,000  Level Fort Worth Center
11:31AM 33.7147 -101.9081 134° Southeast 414 476 43,000  Level Fort Worth Center
11:32AM 33.6325 -101.8167 137° Southeast 414 476 43,000  Level Fort Worth Center
11:33AM 33.5503 -101.7253 137° Southeast 409 471 43,000  Level Fort Worth Center
11:34AM 33.4617 -101.6314 139° Southeast 432 497 43,000  Level Fort Worth Center
11:35AM 33.3731 -101.5300 136° Southeast 422 486 43,000  Level Fort Worth Center
11:36AM 33.2964 -101.4494 139° Southeast 415 478 43,000  Level Fort Worth Center
11:37AM 33.2078 -101.3486 136° Southeast 408 470 43,000  Level Fort Worth Center
11:38AM 33.1331 -101.2658 137° Southeast 408 470 43,000  Level Fort Worth Center
11:39AM 33.0403 -101.1628 137° Southeast 413 475 43,000  Level Fort Worth Center
11:40AM 32.9592 -101.0775 139° Southeast 407 468 43,000  Level Fort Worth Center
11:41AM 32.8742 -100.9875 138° Southeast 407 468 43,000  Level Fort Worth Center
11:42AM 32.7911 -100.8953 137° Southeast 407 468 43,000  Level Fort Worth Center
11:43AM 32.7061 -100.8056 138° Southeast 407 468 43,000  Level Fort Worth Center
11:44AM 32.6208 -100.7136 138° Southeast 407 468 43,000  Level Fort Worth Center
11:45AM 32.5375 -100.6217 137° Southeast 407 468 43,000  Level Fort Worth Center
11:46AM 32.4522 -100.5325 139° Southeast 407 468 43,000  Level Fort Worth Center
11:47AM 32.3689 -100.4411 137° Southeast 407 468 43,000  Level Fort Worth Center
11:48AM 32.2853 -100.3500 137° Southeast 407 468 43,000 -300 Level Fort Worth Center
11:49AM 32.1997 -100.2611 139° Southeast 407 468 42,400 -1,200 Descending Fort Worth Center
11:50AM 32.1122 -100.1678 138° Southeast 418 481 40,600 -1,800 Descending Fort Worth Center
11:51AM 32.0286 -100.0744 137° Southeast 418 481 38,800 -1,800 Descending Fort Worth Center
11:52AM 31.9428 -99.9839 138° Southeast 418 481 37,100 -1,800 Descending Fort Worth Center
11:53AM 31.8547 -99.8886 137° Southeast 418 481 35,200 -1,800 Descending Fort Worth Center
11:54AM 31.7647 -99.7933 138° Southeast 428 493 33,500 -1,740 Descending Fort Worth Center
11:57AM 31.5675 -99.5867 138° Southeast 419 482 29,200 -1,320 Descending Houston Center
11:58AM 31.4767 -99.4906 138° Southeast 420 483 29,000 -420 Descending Houston Center
11:59AM 31.3772 -99.3867 138° Southeast 409 471 28,400 -900 Descending Houston Center
12:00PM 31.2917 -99.2978 138° Southeast 415 478 27,200 -1,200 Descending Houston Center
12:01PM 31.2044 -99.2067 138° Southeast 421 484 26,000 -1,440 Descending Houston Center
12:02PM 31.1125 -99.1128 139° Southeast 420 483 24,300 -1,680 Descending Houston Center
12:03PM 31.0278 -99.0192 137° Southeast 417 480 22,600 -1,680 Descending Houston Center
12:04PM 30.9872 -98.8992 111° Southeast 398 458 20,900 -1,740 Descending Houston Center
12:05PM 30.9517 -98.7819 109° East 384 442 19,100 -1,740 Descending Houston Center
12:06PM 30.9122 -98.6678 112° Southeast 378 435 17,400 -1,800 Descending Houston Center
12:07PM 30.8725 -98.5383 110° East 362 417 15,400 -1,800 Descending Houston Center
12:08PM 30.8367 -98.4306 111° Southeast 355 409 13,700 -1,740 Descending Houston Center
12:09PM 30.8022 -98.3275 111° Southeast 343 395 11,900 -1,680 Descending Houston Center
12:10PM 30.7706 -98.2261 110° East 334 384 10,300 -960 Descending Houston Center
12:11PM 30.7378 -98.1311 112° Southeast 318 366 10,000 -180 Descending Houston Center
12:12PM 30.7028 -98.0431 115° Southeast 303 349 10,000 -600 Level Houston Center
12:13PM 30.6550 -97.9714 128° Southeast 282 325 8,800 -1,740 Descending Houston Center
12:14PM 30.6028 -97.8861 125° Southeast 276 318 6,500 -2,040 Descending Houston Center
12:15PM 30.5547 -97.8225 131° Southeast 265 305 4,600 -1,800 Descending Houston Center
12:16PM 30.4908 -97.7839 152° Southeast 259 298 2,900 -1,020 Descending Houston Center
12:17PM 30.4294 -97.7439 151° Southeast 255 293 2,500 -240 Descending Houston Center
12:18PM 30.3661 -97.7025 151° Southeast 255 293 2,500 -240 Level Houston Center
12:19PM 30.3103 -97.6608 147° Southeast 248 285 2,100 -420 Descending Houston Center
12:20PM 30.2628 -97.6600 179° South 196 226 1,700 -540 Descending Houston Center
12:21PM 30.2214 -97.6578 177° South 158 182 1,100 -600 Descending Houston Center
12:23PM 30.1945 -97.6699 221° Southwest  Level Estimated
12:30PM 30.1945 -97.6699 221° Southwest  Level Estimated
12:31PM 30.1945 -97.6699 221° Southwest  Level Estimated